createdAt,value
2022-07-26T00:02:26.283Z,100654.34
2022-07-26T00:04:53.041Z,100624.28
2022-07-26T00:07:19.610Z,100587.63
2022-07-26T00:09:48.405Z,100623.41
2022-07-26T00:12:15.559Z,100686.31
2022-07-26T00:14:43.501Z,100689.19
2022-07-26T00:17:10.499Z,100620.31
2022-07-26T00:19:37.032Z,100651.78
2022-07-26T00:22:22.385Z,100565.09
2022-07-26T00:24:48.808Z,100638.31
2022-07-26T00:27:15.277Z,100632.28
2022-07-26T00:29:41.741Z,100600.22
2022-07-26T00:32:08.147Z,100667.84
2022-07-26T00:34:34.698Z,100580.28
2022-07-26T00:37:01.229Z,100573.06
2022-07-26T00:39:28.822Z,100579.34
2022-07-26T00:41:55.454Z,100616.91
2022-07-26T00:44:21.941Z,100590.97
2022-07-26T00:46:48.357Z,100604.94
2022-07-26T00:49:14.974Z,100594.41
2022-07-26T00:51:42.205Z,100602.34
2022-07-26T00:54:13.246Z,100605.78
2022-07-26T00:56:40.007Z,100657.47
2022-07-26T00:59:06.733Z,100636.94
2022-07-26T01:01:33.518Z,100570.13
2022-07-26T01:04:00.059Z,100688.00
2022-07-26T01:06:27.517Z,100616.72
2022-07-26T01:08:54.455Z,100583.81
2022-07-26T01:11:20.981Z,100561.78
2022-07-26T01:13:49.306Z,100617.41
2022-07-26T01:16:16.246Z,100589.41
2022-07-26T01:18:43.322Z,100611.56
2022-07-26T01:21:13.908Z,100601.47
2022-07-26T01:23:41.412Z,100614.94
2022-07-26T01:26:08.227Z,100671.41
2022-07-26T01:28:37.727Z,100562.91
2022-07-26T01:31:06.157Z,100581.72
2022-07-26T01:33:34.773Z,100654.81
2022-07-26T01:36:01.651Z,100613.53
2022-07-26T01:38:28.300Z,100607.75
2022-07-26T01:40:54.773Z,100680.03
2022-07-26T01:43:21.202Z,100574.50
2022-07-26T01:45:47.769Z,100602.81
2022-07-26T01:48:14.597Z,100606.97
2022-07-26T01:50:41.151Z,100588.19
2022-07-26T01:53:07.607Z,100631.78
2022-07-26T01:55:34.551Z,100687.44
2022-07-26T01:58:01.124Z,100593.44
2022-07-26T02:00:27.531Z,100594.34
2022-07-26T02:02:54.044Z,100643.97
2022-07-26T02:05:20.655Z,100574.69
2022-07-26T02:07:47.124Z,100610.22
2022-07-26T02:10:14.544Z,100691.81
2022-07-26T02:12:41.505Z,100644.53
2022-07-26T02:15:09.330Z,100598.06
2022-07-26T02:17:35.763Z,100620.34
2022-07-26T02:20:02.448Z,100627.84
2022-07-26T02:22:28.932Z,100610.59
2022-07-26T02:24:55.597Z,100578.31
2022-07-26T02:27:22.050Z,100567.00
2022-07-26T02:29:48.503Z,100571.38
2022-07-26T02:32:14.905Z,100539.03
2022-07-26T02:34:41.371Z,100546.44
2022-07-26T02:37:07.947Z,100720.78
2022-07-26T02:39:34.418Z,100649.19
2022-07-26T02:42:02.298Z,100605.44
2022-07-26T02:44:30.461Z,100635.78
2022-07-26T02:47:00.992Z,100710.91
2022-07-26T02:49:27.400Z,100676.44
2022-07-26T02:51:53.768Z,100677.66
2022-07-26T02:54:20.571Z,100641.09
2022-07-26T02:56:47.132Z,100535.38
2022-07-26T02:59:13.611Z,100617.06
2022-07-26T03:02:04.571Z,100672.34
2022-07-26T03:04:32.660Z,100697.13
2022-07-26T03:06:59.057Z,100664.38
2022-07-26T03:09:25.482Z,100717.09
2022-07-26T03:14:56.059Z,100658.81
2022-07-26T03:17:28.624Z,100658.63
2022-07-26T03:19:55.334Z,100724.16
2022-07-26T03:22:26.784Z,100727.97
2022-07-26T03:24:53.737Z,100647.91
2022-07-26T03:27:20.231Z,100704.59
2022-07-26T03:32:30.332Z,100735.56
2022-07-26T03:35:00.129Z,100702.03
2022-07-26T03:37:26.975Z,100674.75
2022-07-26T03:40:12.800Z,100620.75
2022-07-26T03:42:39.195Z,100660.84
2022-07-26T03:45:06.169Z,100736.88
2022-07-26T03:47:32.558Z,100702.88
2022-07-26T03:49:58.968Z,100695.06
2022-07-26T03:52:25.368Z,100680.44
2022-07-26T03:54:51.774Z,100755.50
2022-07-26T03:57:18.216Z,100661.16
2022-07-26T03:59:44.977Z,100647.47
2022-07-26T04:02:11.501Z,100737.66
2022-07-26T04:04:38.007Z,100667.22
2022-07-26T04:07:06.344Z,100638.78
2022-07-26T04:09:35.931Z,100729.31
2022-07-26T04:12:02.339Z,100764.81
2022-07-26T04:14:28.760Z,100675.72
2022-07-26T04:19:38.954Z,100744.50
2022-07-26T04:22:06.334Z,100726.47
2022-07-26T04:24:32.877Z,100648.81
2022-07-26T04:27:00.829Z,100650.53
2022-07-26T04:29:28.037Z,100738.59
2022-07-26T04:34:35.102Z,100677.91
2022-07-26T04:37:09.074Z,100747.84
2022-07-26T04:39:36.423Z,100681.44
2022-07-26T04:42:02.918Z,100678.41
2022-07-26T04:44:29.341Z,100669.16
2022-07-26T04:46:55.723Z,100672.53
2022-07-26T04:49:22.950Z,100715.88
2022-07-26T04:51:49.426Z,100703.34
2022-07-26T04:54:20.572Z,100675.13
2022-07-26T04:56:47.665Z,100746.88
2022-07-26T04:59:18.456Z,100743.63
2022-07-26T05:01:47.841Z,100673.06
2022-07-26T05:04:14.400Z,100789.81
2022-07-26T05:06:40.803Z,100661.56
2022-07-26T05:09:07.353Z,100706.94
2022-07-26T05:11:33.773Z,100676.81
2022-07-26T05:14:00.156Z,100681.28
2022-07-26T05:16:26.717Z,100794.84
2022-07-26T05:18:55.722Z,100680.38
2022-07-26T05:21:22.180Z,100643.25
2022-07-26T05:23:48.731Z,100670.44
2022-07-26T05:26:15.303Z,100726.41
2022-07-26T05:28:41.774Z,100707.38
2022-07-26T05:31:08.368Z,100728.84
2022-07-26T05:33:34.771Z,100754.16
2022-07-26T05:36:01.331Z,100723.72
2022-07-26T05:38:27.797Z,100694.09
2022-07-26T05:40:54.213Z,100715.63
2022-07-26T05:43:20.611Z,100677.47
2022-07-26T05:45:47.206Z,100712.22
2022-07-26T05:48:13.896Z,100711.03
2022-07-26T05:50:40.496Z,100761.19
2022-07-26T05:53:06.931Z,100692.72
2022-07-26T05:55:33.927Z,100696.66
2022-07-26T05:58:00.371Z,100705.06
2022-07-26T06:00:26.813Z,100688.69
2022-07-26T06:02:53.307Z,100699.56
2022-07-26T06:05:20.008Z,100709.50
2022-07-26T06:07:46.489Z,100699.03
2022-07-26T06:10:13.179Z,100687.06
2022-07-26T06:12:39.726Z,100743.88
2022-07-26T06:15:15.314Z,100705.88
2022-07-26T06:17:42.677Z,100702.72
2022-07-26T06:20:09.748Z,100706.25
2022-07-26T06:22:36.153Z,100796.41
2022-07-26T06:25:02.567Z,100774.13
2022-07-26T06:27:31.721Z,100735.13
2022-07-26T06:29:58.228Z,100714.75
2022-07-26T06:32:24.641Z,100761.94
2022-07-26T06:34:51.060Z,100737.38
2022-07-26T06:37:17.508Z,100726.56
2022-07-26T06:39:43.921Z,100720.97
2022-07-26T06:42:10.323Z,100728.25
2022-07-26T06:44:36.779Z,100739.66
2022-07-26T06:47:03.372Z,100729.56
2022-07-26T06:49:29.871Z,100775.22
2022-07-26T06:51:57.904Z,100743.38
2022-07-26T06:54:24.440Z,100764.97
2022-07-26T06:56:50.892Z,100767.63
2022-07-26T06:59:17.341Z,100753.75
2022-07-26T07:01:58.721Z,100803.78
2022-07-26T07:04:27.224Z,100735.69
2022-07-26T07:06:53.688Z,100802.63
2022-07-26T07:09:21.609Z,100782.38
2022-07-26T07:11:51.765Z,100810.94
2022-07-26T07:14:22.745Z,100833.13
2022-07-26T07:16:49.186Z,100757.03
2022-07-26T07:19:15.682Z,100766.34
2022-07-26T07:21:42.092Z,100729.81
2022-07-26T07:24:09.634Z,100771.84
2022-07-26T07:26:36.823Z,100797.75
2022-07-26T07:29:04.274Z,100797.22
2022-07-26T07:31:48.723Z,100790.53
2022-07-26T07:34:18.106Z,100824.41
2022-07-26T07:36:46.454Z,100859.81
2022-07-26T07:39:17.644Z,100852.78
2022-07-26T07:41:45.026Z,100851.81
2022-07-26T07:44:11.810Z,100884.88
2022-07-26T07:46:38.813Z,100891.94
2022-07-26T07:49:05.854Z,100861.53
2022-07-26T07:51:33.322Z,100782.06
2022-07-26T07:54:06.058Z,100857.28
2022-07-26T07:56:33.474Z,100813.34
2022-07-26T07:59:00.104Z,100811.69
2022-07-26T08:01:39.578Z,100798.75
2022-07-26T08:04:07.944Z,100825.31
2022-07-26T08:06:34.453Z,100786.31
2022-07-26T08:09:01.069Z,100890.09
2022-07-26T08:11:30.477Z,100863.38
2022-07-26T08:13:57.203Z,100838.97
2022-07-26T08:16:24.465Z,100813.75
2022-07-26T08:18:57.047Z,100816.97
2022-07-26T08:21:24.673Z,100796.25
2022-07-26T08:23:54.039Z,100807.31
2022-07-26T08:26:20.644Z,100808.88
2022-07-26T08:28:48.175Z,100872.69
2022-07-26T08:31:16.882Z,100893.00
2022-07-26T08:33:52.826Z,100879.00
2022-07-26T08:36:19.289Z,100864.44
2022-07-26T08:38:46.320Z,100871.34
2022-07-26T08:41:14.973Z,100894.16
2022-07-26T08:43:43.763Z,100847.91
2022-07-26T08:46:24.340Z,100870.81
2022-07-26T08:48:52.355Z,100839.13
2022-07-26T08:51:22.382Z,100824.44
2022-07-26T08:53:50.233Z,100865.69
2022-07-26T08:56:16.619Z,100856.53
2022-07-26T08:58:43.788Z,100890.41
2022-07-26T09:01:23.056Z,100892.56
2022-07-26T09:03:52.075Z,100823.31
2022-07-26T09:06:21.926Z,100800.41
2022-07-26T09:08:52.894Z,100900.75
2022-07-26T09:11:31.121Z,100901.28
2022-07-26T09:14:06.725Z,100887.06
2022-07-26T09:16:39.497Z,100837.88
2022-07-26T09:19:21.344Z,100878.09
2022-07-26T09:21:49.116Z,100889.41
2022-07-26T09:24:35.004Z,100901.16
2022-07-26T09:27:05.200Z,100866.38
2022-07-26T09:29:43.158Z,100911.88
2022-07-26T09:32:12.588Z,100894.78
2022-07-26T09:34:51.953Z,100907.72
2022-07-26T09:37:34.487Z,100828.41
2022-07-26T09:40:17.439Z,100852.81
2022-07-26T09:43:02.237Z,100830.25
2022-07-26T09:45:30.822Z,100932.97
2022-07-26T09:47:57.818Z,100925.84
2022-07-26T09:50:27.862Z,100941.38
2022-07-26T09:53:02.129Z,100922.81
2022-07-26T09:55:39.309Z,100913.09
2022-07-26T09:58:13.899Z,100820.47
2022-07-26T10:00:40.682Z,100934.25
2022-07-26T10:03:10.131Z,100898.47
2022-07-26T10:05:37.875Z,100858.38
2022-07-26T10:08:05.385Z,100932.16
2022-07-26T10:10:38.985Z,100889.97
2022-07-26T10:13:08.019Z,100923.13
2022-07-26T10:15:38.455Z,100910.72
2022-07-26T10:18:08.436Z,100932.22
2022-07-26T10:20:49.912Z,100838.59
2022-07-26T10:23:40.134Z,100937.47
2022-07-26T10:26:21.370Z,100909.72
2022-07-26T10:28:47.955Z,100930.03
2022-07-26T10:31:51.293Z,100918.25
2022-07-26T10:34:56.472Z,100932.34
2022-07-26T10:37:27.795Z,100953.13
2022-07-26T10:40:22.320Z,100947.13
2022-07-26T10:42:48.810Z,100859.13
2022-07-26T10:45:21.219Z,100868.91
2022-07-26T10:48:17.154Z,100946.91
2022-07-26T10:50:46.719Z,100833.81
2022-07-26T10:53:19.200Z,100838.13
2022-07-26T10:55:53.635Z,100860.34
2022-07-26T10:58:21.920Z,100809.06
2022-07-26T11:01:03.295Z,100878.22
2022-07-26T11:03:41.559Z,100949.50
2022-07-26T11:06:12.245Z,100941.09
2022-07-26T11:08:38.792Z,100877.25
2022-07-26T11:11:05.457Z,100935.03
2022-07-26T11:13:33.473Z,100959.25
2022-07-26T11:16:02.609Z,100959.44
2022-07-26T11:18:32.566Z,100970.00
2022-07-26T11:21:15.648Z,100892.66
2022-07-26T11:23:46.551Z,100884.09
2022-07-26T11:26:23.269Z,100835.56
2022-07-26T11:28:55.520Z,100844.91
2022-07-26T11:31:55.871Z,100824.84
2022-07-26T11:34:29.371Z,100859.97
2022-07-26T11:36:58.905Z,100971.91
2022-07-26T11:39:27.938Z,100950.63
2022-07-26T11:42:01.651Z,100815.16
2022-07-26T11:44:29.089Z,100899.25
2022-07-26T11:46:57.643Z,100882.66
2022-07-26T11:49:59.700Z,100898.50
2022-07-26T11:52:25.058Z,100875.22
2022-07-26T11:54:53.184Z,100986.69
2022-07-26T11:57:20.113Z,100871.03
2022-07-26T11:59:48.463Z,100891.34
2022-07-26T12:02:15.506Z,100872.56
2022-07-26T12:04:43.492Z,100889.41
2022-07-26T12:07:12.346Z,100958.31
2022-07-26T12:10:01.489Z,100928.13
2022-07-26T12:12:31.054Z,100887.50
2022-07-26T12:15:02.673Z,100884.75
2022-07-26T12:17:35.129Z,100963.63
2022-07-26T12:20:17.566Z,100882.44
2022-07-26T12:23:04.952Z,100844.88
2022-07-26T12:25:31.621Z,100885.78
2022-07-26T12:27:58.090Z,100899.03
2022-07-26T12:30:25.636Z,100869.16
2022-07-26T12:33:02.117Z,100876.63
2022-07-26T12:35:33.343Z,100932.91
2022-07-26T12:37:59.955Z,100951.19
2022-07-26T12:40:29.305Z,100960.69
2022-07-26T12:43:01.253Z,100884.06
2022-07-26T12:45:32.565Z,100874.34
2022-07-26T12:48:00.870Z,100907.53
2022-07-26T12:50:29.071Z,100878.06
2022-07-26T12:53:07.091Z,100903.22
2022-07-26T12:55:34.433Z,100869.16
2022-07-26T12:58:01.271Z,100925.09
2022-07-26T13:00:29.616Z,100939.31
2022-07-26T13:02:57.191Z,100882.59
2022-07-26T13:05:24.022Z,100912.41
2022-07-26T13:07:52.785Z,100891.81
2022-07-26T13:10:48.305Z,100939.44
2022-07-26T13:13:16.464Z,100965.47
2022-07-26T13:15:44.442Z,100864.69
2022-07-26T13:18:12.948Z,100959.34
2022-07-26T13:20:39.446Z,100954.97
2022-07-26T13:23:12.720Z,100931.38
2022-07-26T13:25:40.891Z,100957.78
2022-07-26T13:28:10.040Z,100973.69
2022-07-26T13:30:47.216Z,100787.28
2022-07-26T13:33:16.347Z,100908.19
2022-07-26T13:35:42.920Z,100969.00
2022-07-26T13:38:10.089Z,100974.41
2022-07-26T13:40:36.583Z,100952.44
2022-07-26T13:43:07.409Z,100961.75
2022-07-26T13:45:38.366Z,100962.84
2022-07-26T13:48:05.656Z,100973.00
2022-07-26T13:50:32.179Z,100973.13
2022-07-26T13:52:59.178Z,100966.31
2022-07-26T13:55:28.804Z,100979.94
2022-07-26T13:57:56.636Z,100989.94
2022-07-26T14:00:25.517Z,100983.50
2022-07-26T14:02:52.094Z,100981.94
2022-07-26T14:05:20.588Z,100969.22
2022-07-26T14:07:50.596Z,100933.28
2022-07-26T14:13:01.067Z,100933.75
2022-07-26T14:15:27.439Z,100967.56
2022-07-26T14:18:00.553Z,101014.91
2022-07-26T14:20:27.353Z,100993.94
2022-07-26T14:22:56.897Z,101017.38
2022-07-26T14:25:25.563Z,101001.03
2022-07-26T14:27:53.609Z,100940.25
2022-07-26T14:30:27.380Z,101020.31
2022-07-26T14:32:57.378Z,100941.75
2022-07-26T14:35:25.673Z,101026.84
2022-07-26T14:37:59.419Z,100994.47
2022-07-26T14:40:26.148Z,100963.59
2022-07-26T14:42:55.527Z,100973.00
2022-07-26T14:45:38.378Z,100938.06
2022-07-26T14:48:51.937Z,101019.41
2022-07-26T14:51:21.149Z,100990.94
2022-07-26T14:53:51.207Z,101021.47
2022-07-26T14:56:40.619Z,100950.97
2022-07-26T14:59:50.708Z,101020.31
2022-07-26T15:02:29.331Z,100996.91
2022-07-26T15:05:03.675Z,100930.88
2022-07-26T15:07:47.930Z,101028.81
2022-07-26T15:10:20.746Z,101027.31
2022-07-26T15:12:52.174Z,100951.50
2022-07-26T15:15:18.766Z,101008.38
2022-07-26T15:17:53.488Z,101008.16
2022-07-26T15:29:18.832Z,101031.00
2022-07-26T15:35:01.735Z,101036.16
2022-07-26T15:37:28.799Z,101032.03
2022-07-26T15:40:13.995Z,100960.03
2022-07-26T15:42:47.402Z,101031.97
2022-07-26T15:45:15.372Z,101046.00
2022-07-26T15:47:54.875Z,100991.34
2022-07-26T15:50:29.975Z,101004.66
2022-07-26T15:52:56.677Z,101035.72
2022-07-26T15:55:23.618Z,101006.59
2022-07-26T15:57:50.116Z,101027.78
2022-07-26T16:00:17.037Z,100985.00
2022-07-26T16:02:54.024Z,101043.41
2022-07-26T16:05:20.905Z,100890.94
2022-07-26T16:07:47.856Z,101037.47
2022-07-26T16:10:14.832Z,100985.22
2022-07-26T16:12:42.212Z,100980.50
2022-07-26T16:15:10.383Z,100933.50
2022-07-26T16:17:37.354Z,100949.47
2022-07-26T16:20:04.763Z,100971.28
2022-07-26T16:22:42.644Z,101011.41
2022-07-26T16:25:10.115Z,101007.47
2022-07-26T16:27:41.821Z,100956.13
2022-07-26T16:30:43.706Z,100954.59
2022-07-26T16:33:20.065Z,100957.72
2022-07-26T16:35:48.492Z,100957.41
2022-07-26T16:38:24.929Z,100948.63
2022-07-26T16:40:53.175Z,100970.88
2022-07-26T16:43:20.853Z,101031.41
2022-07-26T16:45:47.278Z,100969.94
2022-07-26T16:48:13.796Z,100956.38
2022-07-26T16:50:40.679Z,100963.22
2022-07-26T16:53:10.391Z,100988.81
2022-07-26T16:55:39.543Z,100919.28
2022-07-26T16:58:05.980Z,100991.16
2022-07-26T17:00:32.442Z,100933.00
2022-07-26T17:02:59.051Z,100985.06
2022-07-26T17:05:25.489Z,101048.50
2022-07-26T17:07:52.127Z,101007.88
2022-07-26T17:10:18.778Z,101035.56
2022-07-26T17:12:45.646Z,101021.22
2022-07-26T17:15:13.809Z,101062.69
2022-07-26T17:17:41.562Z,100993.31
2022-07-26T17:20:10.568Z,100954.91
2022-07-26T17:22:37.182Z,101074.72
2022-07-26T17:25:05.340Z,100999.72
2022-07-26T17:27:31.740Z,101019.50
2022-07-26T17:29:59.887Z,101016.25
2022-07-26T17:32:29.573Z,101000.94
2022-07-26T17:34:56.279Z,100995.22
2022-07-26T17:37:22.775Z,100985.84
2022-07-26T17:39:52.551Z,101005.44
2022-07-26T17:42:20.205Z,100985.56
2022-07-26T17:44:46.687Z,101014.47
2022-07-26T17:47:28.486Z,101002.47
2022-07-26T17:50:08.961Z,101012.81
2022-07-26T17:52:45.080Z,101000.59
2022-07-26T17:55:11.531Z,100994.94
2022-07-26T17:57:38.093Z,101047.75
2022-07-26T18:00:06.687Z,101025.94
2022-07-26T18:02:33.484Z,101004.13
2022-07-26T18:04:59.986Z,101031.84
2022-07-26T18:07:26.483Z,100987.84
2022-07-26T18:09:52.899Z,101033.19
2022-07-26T18:12:19.348Z,100974.34
2022-07-26T18:14:45.782Z,100981.84
2022-07-26T18:17:12.340Z,100936.38
2022-07-26T18:19:38.796Z,100998.34
2022-07-26T18:22:06.238Z,101005.09
2022-07-26T18:24:33.089Z,100988.44
2022-07-26T18:26:59.523Z,100988.81
2022-07-26T18:29:25.993Z,101005.75
2022-07-26T18:31:52.536Z,100997.16
2022-07-26T18:34:19.031Z,100990.50
2022-07-26T18:36:45.481Z,101050.50
2022-07-26T18:39:12.496Z,101101.03
2022-07-26T18:41:39.153Z,101010.31
2022-07-26T18:44:05.886Z,101031.28
2022-07-26T18:46:32.367Z,100986.53
2022-07-26T18:49:00.246Z,101030.16
2022-07-26T18:51:28.776Z,100964.03
2022-07-26T18:53:55.257Z,101031.13
2022-07-26T18:56:21.717Z,100994.72
2022-07-26T18:58:48.144Z,101002.53
2022-07-26T19:01:14.806Z,101086.06
2022-07-26T19:03:41.273Z,101013.44
2022-07-26T19:06:08.645Z,100991.47
2022-07-26T19:08:35.043Z,100997.00
2022-07-26T19:11:01.480Z,101046.31
2022-07-26T19:13:27.913Z,101077.16
2022-07-26T19:15:54.531Z,100979.09
2022-07-26T19:18:20.957Z,101019.25
2022-07-26T19:20:47.384Z,101018.22
2022-07-26T19:23:13.938Z,101005.31
2022-07-26T19:25:41.427Z,101024.16
2022-07-26T19:28:08.561Z,101020.13
2022-07-26T19:30:36.698Z,101046.53
2022-07-26T19:33:03.205Z,101008.00
2022-07-26T19:35:30.429Z,101052.28
2022-07-26T19:37:57.390Z,101061.41
2022-07-26T19:40:24.007Z,101033.44
2022-07-26T19:42:50.430Z,101100.75
2022-07-26T19:45:16.937Z,101020.31
2022-07-26T19:47:44.377Z,101007.34
2022-07-26T19:50:11.830Z,101054.53
2022-07-26T19:52:39.057Z,101143.22
2022-07-26T19:55:06.119Z,101050.03
2022-07-26T19:57:32.582Z,101011.34
2022-07-26T20:00:00.491Z,101068.16
2022-07-26T20:02:26.935Z,101027.50
2022-07-26T20:04:54.473Z,101089.88
2022-07-26T20:07:21.139Z,101157.97
2022-07-26T20:09:49.121Z,101072.44
2022-07-26T20:12:16.181Z,101154.06
2022-07-26T20:14:42.978Z,101060.22
2022-07-26T20:17:12.019Z,101170.75
2022-07-26T20:19:39.782Z,101074.16
2022-07-26T20:22:06.610Z,101086.28
2022-07-26T20:24:33.102Z,101082.31
2022-07-26T20:26:59.656Z,101137.06
2022-07-26T20:29:26.131Z,101072.88
2022-07-26T20:31:52.550Z,101093.81
2022-07-26T20:34:18.999Z,101080.91
2022-07-26T20:36:46.035Z,101182.94
2022-07-26T20:39:13.055Z,101084.31
2022-07-26T20:41:39.925Z,101091.53
2022-07-26T20:44:06.545Z,101087.59
2022-07-26T20:46:33.547Z,101160.09
2022-07-26T20:49:00.205Z,101086.03
2022-07-26T20:51:26.659Z,101091.59
2022-07-26T20:53:53.138Z,101104.31
2022-07-26T20:56:19.550Z,101084.00
2022-07-26T20:58:45.983Z,101118.88
2022-07-26T21:01:13.823Z,101102.75
2022-07-26T21:03:40.457Z,101126.03
2022-07-26T21:06:06.987Z,101164.56
2022-07-26T21:08:33.374Z,101110.28
2022-07-26T21:10:59.797Z,101152.03
2022-07-26T21:13:26.236Z,101110.59
2022-07-26T21:15:54.244Z,101111.47
2022-07-26T21:18:21.313Z,101117.63
2022-07-26T21:20:47.966Z,101135.31
2022-07-26T21:23:17.897Z,101114.72
2022-07-26T21:25:44.911Z,101133.41
2022-07-26T21:28:11.442Z,101116.44
2022-07-26T21:30:38.324Z,101140.78
2022-07-26T21:33:05.497Z,101103.69
2022-07-26T21:35:32.304Z,101095.38
2022-07-26T21:37:58.843Z,101136.50
2022-07-26T21:40:25.461Z,101098.03
2022-07-26T21:42:51.961Z,101200.16
2022-07-26T21:45:18.553Z,101096.88
2022-07-26T21:47:45.002Z,101130.97
2022-07-26T21:50:12.129Z,101126.34
2022-07-26T21:52:38.544Z,101107.34
2022-07-26T21:55:05.601Z,101127.13
2022-07-26T21:57:31.998Z,101121.50
2022-07-26T21:59:59.161Z,101162.31
2022-07-26T22:02:26.054Z,101131.72
2022-07-26T22:04:52.519Z,101231.06
2022-07-26T22:07:18.925Z,101139.94
2022-07-26T22:09:45.368Z,101139.94
2022-07-26T22:12:11.799Z,101136.22
2022-07-26T22:14:38.261Z,101152.16
2022-07-26T22:17:04.731Z,101187.66
2022-07-26T22:19:31.230Z,101116.00
2022-07-26T22:21:57.711Z,101125.72
2022-07-26T22:24:24.150Z,101108.75
2022-07-26T22:26:50.562Z,101140.53
2022-07-26T22:29:17.001Z,101140.78
2022-07-26T22:31:43.526Z,101145.47
2022-07-26T22:34:10.137Z,101160.22
2022-07-26T22:36:36.563Z,101164.06
2022-07-26T22:39:03.202Z,101243.91
2022-07-26T22:41:31.705Z,101142.09
2022-07-26T22:43:59.112Z,101136.41
2022-07-26T22:46:27.630Z,101125.06
2022-07-26T22:48:55.707Z,101120.47
2022-07-26T22:51:22.167Z,101155.13
2022-07-26T22:53:48.588Z,101190.13
2022-07-26T22:56:19.680Z,101241.22
2022-07-26T22:58:46.834Z,101157.97
2022-07-26T23:01:13.702Z,101170.31
2022-07-26T23:03:41.429Z,101178.28
2022-07-26T23:06:21.009Z,101157.16
2022-07-26T23:08:57.296Z,101149.19
2022-07-26T23:11:23.733Z,101181.13
2022-07-26T23:13:50.142Z,101112.91
2022-07-26T23:16:16.644Z,101139.78
2022-07-26T23:18:43.074Z,101149.13
2022-07-26T23:21:09.526Z,101165.75
2022-07-26T23:23:35.973Z,101219.84
2022-07-26T23:26:02.470Z,101138.38
2022-07-26T23:28:36.210Z,101252.81
2022-07-26T23:31:09.038Z,101153.75
2022-07-26T23:33:52.594Z,101248.13
2022-07-26T23:36:30.237Z,101145.03
2022-07-26T23:38:58.706Z,101153.66
2022-07-26T23:41:26.547Z,101153.19
2022-07-26T23:43:54.023Z,101160.09
2022-07-26T23:46:20.950Z,101145.03
2022-07-26T23:48:47.543Z,101183.34
2022-07-26T23:51:14.768Z,101163.13
2022-07-26T23:53:41.334Z,101135.88
2022-07-26T23:56:08.020Z,101181.13
2022-07-26T23:58:34.444Z,101262.06
